Thursday, May 24, 2018, 5:07 AM CDT
Back to Local

KOMA, Omaha Eppley Airfield

Location: Omaha, NE, United States Lat: 41.3
Local Time: 5:07 AM CDT (10:07 GMT) Lon: -95.9
Time Zone: US/Central Elev: 984 ft

Show me the last for .
Show Decoded

2018-05-24 04:52 METAR KOMA 240952Z 16009KT 10SM SCT250 22/18 A3004 RMK AO2 SLP161 T02170178 =
2018-05-24 03:52 METAR KOMA 240852Z 15008KT 10SM SCT250 22/18 A3004 RMK AO2 SLP161 T02170178
                 51006 =
2018-05-24 02:52 METAR KOMA 240752Z 15006KT 10SM SCT250 22/17 A3003 RMK AO2 SLP159 T02170172 =
2018-05-24 01:52 METAR KOMA 240652Z 16007KT 10SM BKN250 23/17 A3003 RMK AO2 SLP158 T02280167 =
2018-05-24 00:52 METAR KOMA 240552Z 18006KT 10SM BKN250 25/17 A3002 RMK AO2 SLP155 T02500167
                 10322 20239 403330194 51007 =
2018-05-23 23:52 METAR KOMA 240452Z 17006KT 10SM BKN250 25/17 A3000 RMK AO2 SLP151 T02500167 =
2018-05-23 22:52 METAR KOMA 240352Z 15009KT 10SM SCT250 26/17 A3002 RMK AO2 SLP155 T02610167 =
2018-05-23 21:52 METAR KOMA 240252Z 15009KT 10SM FEW080 SCT250 27/16 A3000 RMK AO2 SLP148
                 T02720161 53008 =
2018-05-23 20:52 METAR KOMA 240152Z 15011KT 10SM FEW080 SCT250 29/14 A2998 RMK AO2 SLP143
                 T02940144 =
2018-05-23 19:52 METAR KOMA 240052Z 16013KT 10SM FEW070 SCT250 31/15 A2997 RMK AO2 SLP140
                 T03060150 =
2018-05-23 18:52 METAR KOMA 232352Z 16019G25KT 10SM FEW070 SCT250 32/16 A2997 RMK AO2 SLP140
                 T03220156 10333 20306 55001 =
2018-05-23 17:52 METAR KOMA 232252Z 17017KT 10SM FEW065 SCT250 33/15 A2996 RMK AO2 SLP136
                 T03330150 =
2018-05-23 16:52 METAR KOMA 232152Z 15012G20KT 10SM SCT065 SCT250 33/16 A2997 RMK AO2 SLP138
                 T03330156 =
2018-05-23 15:52 METAR KOMA 232052Z 18014G27KT 10SM SCT065 SCT250 33/16 A2998 RMK AO2 PK WND
                 18027/2049 SLP141 T03330161 58023 =
2018-05-23 14:52 METAR KOMA 231952Z 15014KT 10SM SCT065 SCT250 32/17 A3001 RMK AO2 SLP151
                 T03220167 =
2018-05-23 13:52 METAR KOMA 231852Z 18013G20KT 10SM SCT055 SCT250 32/17 A3002 RMK AO2 SLP158
                 T03170172 =
2018-05-23 12:52 METAR KOMA 231752Z 18012KT 10SM SCT055 SCT250 31/17 A3005 RMK AO2 SLP165
                 T03060172 10306 20200 58004 $ =
2018-05-23 11:52 METAR KOMA 231652Z 18011G19KT 10SM SCT045 SCT250 29/17 A3006 RMK AO2 SLP168
                 T02940172 $ =
2018-05-23 10:52 METAR KOMA 231552Z 17012KT 10SM FEW030 SCT250 28/20 A3006 RMK AO2 SLP170
                 T02780200 $ =
2018-05-23 09:52 METAR KOMA 231452Z 17012KT 10SM SCT250 27/19 A3006 RMK AO2 SLP169 T02670194
                 50005 =
2018-05-23 08:52 METAR KOMA 231352Z 17012KT 10SM FEW250 24/19 A3006 RMK AO2 SLP171 T02440189 =
2018-05-23 07:52 METAR KOMA 231252Z 16007KT 10SM FEW250 22/18 A3005 RMK AO2 SLP168 T02220183 =
2018-05-23 06:52 METAR KOMA 231152Z 16006KT 10SM FEW250 20/18 A3004 RMK AO2 SLP165 70071
                 T02000178 10222 20194 51016 =
2018-05-23 05:52 METAR KOMA 231052Z 15006KT 10SM FEW250 20/17 A3003 RMK AO2 SLP161 T02000172 =

Support USWX by starting your Amazon purchase here.